createdAt,value
2022-10-21T00:01:44.368Z,2.81
2022-10-21T00:13:52.680Z,2.89
2022-10-21T00:25:03.841Z,2.85
2022-10-21T00:46:17.790Z,2.83
2022-10-21T01:02:11.914Z,2.78
2022-10-21T01:45:51.300Z,2.53
2022-10-21T02:07:02.034Z,2.42
2022-10-21T02:17:40.077Z,2.36
2022-10-21T02:20:36.918Z,2.35
2022-10-21T02:27:40.056Z,2.28
2022-10-21T02:30:10.640Z,2.27
2022-10-21T02:37:33.136Z,2.23
2022-10-21T02:49:20.511Z,2.18
2022-10-21T03:06:04.753Z,2.09
2022-10-21T03:13:46.106Z,2.11
2022-10-21T03:21:06.820Z,2.17
2022-10-21T03:47:37.145Z,2.46
2022-10-21T03:50:54.155Z,2.50
2022-10-21T04:34:11.436Z,2.35
2022-10-21T04:46:22.918Z,2.18
2022-10-21T04:48:53.056Z,2.17
2022-10-21T05:01:02.067Z,2.20
2022-10-21T05:08:42.352Z,2.25
2022-10-21T05:16:02.269Z,2.26
2022-10-21T05:28:29.605Z,2.50
2022-10-21T05:45:12.647Z,2.82
2022-10-21T06:10:17.522Z,3.26
2022-10-21T06:17:10.685Z,3.49
2022-10-21T06:20:28.407Z,3.58
2022-10-21T06:27:46.206Z,3.85
2022-10-21T06:43:42.512Z,4.57
2022-10-21T06:55:08.925Z,4.94
2022-10-21T06:58:42.680Z,5.01
2022-10-21T07:02:10.670Z,5.07
2022-10-21T07:22:46.240Z,10.95
2022-10-21T07:30:06.690Z,11.56
2022-10-21T07:32:41.388Z,11.07
2022-10-21T07:35:12.543Z,10.51
2022-10-21T07:37:47.289Z,10.05
2022-10-21T07:40:59.039Z,9.75
2022-10-21T08:01:39.813Z,9.17
2022-10-21T08:04:53.116Z,9.11
2022-10-21T08:08:07.426Z,9.14
2022-10-21T08:10:40.784Z,9.15
2022-10-21T08:13:09.344Z,9.21
2022-10-21T08:15:42.401Z,9.26
2022-10-21T08:18:25.369Z,9.33
2022-10-21T08:20:54.509Z,9.43
2022-10-21T08:23:25.793Z,9.56
2022-10-21T08:25:56.389Z,9.78
2022-10-21T08:28:26.432Z,10.13
2022-10-21T08:31:03.617Z,10.73
2022-10-21T08:33:33.889Z,12.16
2022-10-21T08:36:05.175Z,12.98
2022-10-21T08:38:34.593Z,13.16
2022-10-21T08:41:11.476Z,12.80
2022-10-21T08:43:40.326Z,12.36
2022-10-21T08:46:53.463Z,11.91
2022-10-21T08:49:29.940Z,11.57
2022-10-21T08:52:04.309Z,11.43
2022-10-21T08:54:42.480Z,11.44
2022-10-21T08:57:12.634Z,11.65
2022-10-21T08:59:42.069Z,12.27
2022-10-21T09:02:27.007Z,12.90
2022-10-21T09:08:03.260Z,12.58
2022-10-21T09:10:46.220Z,12.09
2022-10-21T09:13:25.560Z,11.70
2022-10-21T09:16:03.434Z,11.39
2022-10-21T09:18:44.028Z,11.12
2022-10-21T09:21:25.521Z,10.93
2022-10-21T09:24:03.278Z,10.85
2022-10-21T09:26:38.257Z,10.74
2022-10-21T09:29:26.309Z,10.66
2022-10-21T09:32:02.387Z,10.63
2022-10-21T09:34:44.028Z,10.59
2022-10-21T09:37:20.364Z,10.56
2022-10-21T09:39:54.048Z,10.54
2022-10-21T09:42:45.802Z,10.52
2022-10-21T09:45:21.578Z,10.50
2022-10-21T09:47:56.514Z,10.48
2022-10-21T09:50:25.936Z,10.47
2022-10-21T09:53:00.339Z,10.49
2022-10-21T09:55:31.429Z,10.47
2022-10-21T09:58:01.408Z,10.47
2022-10-21T10:00:48.328Z,10.50
2022-10-21T10:03:34.941Z,10.54
2022-10-21T10:06:06.455Z,10.57
2022-10-21T10:08:40.139Z,10.59
2022-10-21T10:11:18.145Z,10.62
2022-10-21T10:13:48.759Z,10.66
2022-10-21T10:16:29.488Z,10.71
2022-10-21T10:19:15.919Z,10.76
2022-10-21T10:21:44.666Z,10.85
2022-10-21T10:24:18.747Z,10.95
2022-10-21T10:26:48.583Z,11.03
2022-10-21T10:29:25.957Z,11.15
2022-10-21T10:31:57.562Z,11.34
2022-10-21T10:34:32.026Z,11.50
2022-10-21T10:37:04.477Z,11.62
2022-10-21T10:39:38.563Z,11.72
2022-10-21T10:42:08.012Z,11.84
2022-10-21T10:44:40.438Z,11.94
2022-10-21T10:47:19.885Z,12.02
2022-10-21T10:49:50.754Z,12.07
2022-10-21T10:52:23.672Z,12.09
2022-10-21T10:55:15.843Z,12.10
2022-10-21T10:57:58.849Z,12.15
2022-10-21T11:00:39.936Z,12.19
2022-10-21T11:03:15.685Z,12.28
2022-10-21T11:05:47.346Z,12.42
2022-10-21T11:09:07.819Z,12.55
2022-10-21T11:11:40.556Z,12.67
2022-10-21T11:14:16.359Z,12.79
2022-10-21T11:17:08.996Z,12.86
2022-10-21T11:19:48.343Z,13.03
2022-10-21T11:22:30.442Z,13.43
2022-10-21T11:25:09.610Z,13.78
2022-10-21T11:27:49.925Z,13.97
2022-10-21T11:30:21.300Z,14.05
2022-10-21T11:33:10.043Z,14.11
2022-10-21T11:35:53.041Z,14.16
2022-10-21T11:38:50.747Z,14.33
2022-10-21T11:41:30.578Z,14.38
2022-10-21T11:44:11.420Z,14.56
2022-10-21T11:46:51.005Z,14.74
2022-10-21T11:49:37.289Z,14.83
2022-10-21T11:52:16.172Z,14.99
2022-10-21T11:55:17.992Z,15.28
2022-10-21T11:57:54.505Z,15.58
2022-10-21T12:00:25.524Z,15.76
2022-10-21T12:03:24.869Z,15.86
2022-10-21T12:06:01.108Z,16.36
2022-10-21T12:08:39.662Z,16.69
2022-10-21T12:11:16.871Z,16.82
2022-10-21T12:13:50.811Z,16.56
2022-10-21T12:16:24.465Z,16.06
2022-10-21T12:18:56.410Z,15.72
2022-10-21T12:21:28.597Z,15.39
2022-10-21T12:24:04.419Z,15.13
2022-10-21T12:26:41.645Z,14.86
2022-10-21T12:29:20.163Z,14.82
2022-10-21T12:31:56.022Z,14.91
2022-10-21T12:34:25.070Z,15.14
2022-10-21T12:36:54.521Z,15.62
2022-10-21T12:39:50.495Z,16.29
2022-10-21T12:42:25.027Z,16.65
2022-10-21T12:44:53.703Z,16.61
2022-10-21T12:47:29.448Z,16.47
2022-10-21T12:50:17.406Z,16.23
2022-10-21T12:52:55.523Z,15.92
2022-10-21T12:55:28.435Z,15.73
2022-10-21T12:58:01.142Z,15.38
2022-10-21T13:00:55.864Z,15.17
2022-10-21T13:03:52.323Z,15.09
2022-10-21T13:06:52.765Z,15.00
2022-10-21T13:09:42.542Z,14.85
2022-10-21T13:12:26.149Z,14.65
2022-10-21T13:14:55.476Z,14.47
2022-10-21T13:17:49.707Z,14.40
2022-10-21T13:20:47.070Z,14.35
2022-10-21T13:23:38.628Z,14.32
2022-10-21T13:26:15.627Z,14.29
2022-10-21T13:29:00.712Z,14.19
2022-10-21T13:31:29.573Z,14.11
2022-10-21T13:33:58.527Z,13.93
2022-10-21T13:39:20.252Z,13.67
2022-10-21T13:41:58.509Z,13.55
2022-10-21T13:44:32.058Z,13.40
2022-10-21T13:47:20.309Z,13.28
2022-10-21T13:49:55.523Z,13.20
2022-10-21T13:52:28.502Z,13.19
2022-10-21T13:55:01.658Z,13.18
2022-10-21T13:57:32.351Z,13.15
2022-10-21T14:00:02.268Z,13.13
2022-10-21T14:02:33.396Z,13.09
2022-10-21T14:05:01.995Z,13.05
2022-10-21T14:07:32.171Z,13.03
2022-10-21T14:10:00.977Z,13.01
2022-10-21T14:13:23.054Z,12.98
2022-10-21T14:15:52.401Z,12.92
2022-10-21T14:18:33.586Z,12.85
2022-10-21T14:21:07.854Z,12.75
2022-10-21T14:23:36.547Z,12.67
2022-10-21T14:26:08.740Z,12.63
2022-10-21T14:28:37.840Z,12.58
2022-10-21T14:31:11.237Z,12.54
2022-10-21T14:33:42.807Z,12.51
2022-10-21T14:36:15.450Z,12.46
2022-10-21T14:38:51.625Z,12.43
2022-10-21T14:41:24.299Z,12.41
2022-10-21T14:44:36.320Z,12.37
2022-10-21T14:47:18.711Z,12.33
2022-10-21T14:49:49.612Z,12.29
2022-10-21T14:52:21.556Z,12.25
2022-10-21T14:54:55.485Z,12.19
2022-10-21T14:57:37.522Z,12.17
2022-10-21T15:00:25.100Z,12.14
2022-10-21T15:02:58.127Z,12.10
2022-10-21T15:05:48.848Z,12.07
2022-10-21T15:08:35.402Z,12.02
2022-10-21T15:11:34.854Z,12.01
2022-10-21T15:14:20.012Z,11.99
2022-10-21T15:16:51.415Z,11.99
2022-10-21T15:19:23.393Z,11.97
2022-10-21T15:21:57.771Z,11.94
2022-10-21T15:24:42.475Z,11.90
2022-10-21T15:27:24.797Z,11.90
2022-10-21T15:29:54.014Z,11.92
2022-10-21T15:32:24.479Z,11.90
2022-10-21T15:34:55.596Z,11.87
2022-10-21T15:37:24.162Z,11.85
2022-10-21T15:39:55.571Z,11.81
2022-10-21T15:42:26.804Z,11.78
2022-10-21T15:44:55.556Z,11.76
2022-10-21T15:47:24.373Z,11.73
2022-10-21T15:49:55.374Z,11.73
2022-10-21T15:52:24.028Z,11.73
2022-10-21T15:54:54.433Z,11.70
2022-10-21T15:57:22.327Z,11.69
2022-10-21T15:59:51.004Z,11.65
2022-10-21T16:02:19.562Z,11.63
2022-10-21T16:04:51.056Z,11.60
2022-10-21T16:07:22.273Z,11.59
2022-10-21T16:09:50.826Z,11.58
2022-10-21T16:12:21.812Z,11.57
2022-10-21T16:14:50.402Z,11.55
2022-10-21T16:17:20.204Z,11.54
2022-10-21T16:19:48.736Z,11.54
2022-10-21T16:22:21.291Z,11.54
2022-10-21T16:24:49.867Z,11.55
2022-10-21T16:27:31.117Z,11.51
2022-10-21T16:30:16.017Z,11.51
2022-10-21T16:32:44.661Z,11.53
2022-10-21T16:35:15.360Z,11.55
2022-10-21T16:37:44.349Z,11.58
2022-10-21T16:40:18.621Z,11.59
2022-10-21T16:42:47.663Z,11.59
2022-10-21T16:45:17.355Z,11.60
2022-10-21T16:47:52.070Z,11.61
2022-10-21T16:50:26.160Z,11.62
2022-10-21T16:52:56.572Z,11.61
2022-10-21T16:55:24.369Z,11.61
2022-10-21T16:57:52.947Z,11.61
2022-10-21T17:00:22.255Z,11.62
2022-10-21T17:02:53.615Z,11.63
2022-10-21T17:05:25.083Z,11.64
2022-10-21T17:07:54.558Z,11.66
2022-10-21T17:10:23.141Z,11.66
2022-10-21T17:12:58.001Z,11.66
2022-10-21T17:15:27.623Z,11.67
2022-10-21T17:17:56.180Z,11.66
2022-10-21T17:20:29.615Z,11.64
2022-10-21T17:22:58.853Z,11.65
2022-10-21T17:25:31.151Z,11.67
2022-10-21T17:27:59.824Z,11.68
2022-10-21T17:30:28.435Z,11.69
2022-10-21T17:32:56.997Z,11.70
2022-10-21T17:35:25.853Z,11.70
2022-10-21T17:37:54.859Z,11.69
2022-10-21T17:40:26.322Z,11.68
2022-10-21T17:42:54.945Z,11.67
2022-10-21T17:45:23.827Z,11.66
2022-10-21T17:47:53.003Z,11.66
2022-10-21T17:50:23.312Z,11.66
2022-10-21T17:52:52.986Z,11.67
2022-10-21T17:55:21.743Z,11.67
2022-10-21T17:57:50.320Z,11.68
2022-10-21T18:00:19.703Z,11.68
2022-10-21T18:02:49.202Z,11.67
2022-10-21T18:05:17.999Z,11.65
2022-10-21T18:07:47.431Z,11.63
2022-10-21T18:10:16.675Z,11.60
2022-10-21T18:12:45.671Z,11.57
2022-10-21T18:15:14.233Z,11.56
2022-10-21T18:17:43.329Z,11.55
2022-10-21T18:20:13.273Z,11.54
2022-10-21T18:22:45.046Z,11.55
2022-10-21T18:25:16.605Z,11.53
2022-10-21T18:27:45.263Z,11.50
2022-10-21T18:30:18.037Z,11.50
2022-10-21T18:32:46.732Z,11.49
2022-10-21T18:35:15.886Z,11.48
2022-10-21T18:37:44.486Z,11.47
2022-10-21T18:40:13.641Z,11.45
2022-10-21T18:42:42.174Z,11.44
2022-10-21T18:45:11.577Z,11.42
2022-10-21T18:47:40.927Z,11.38
2022-10-21T18:50:11.875Z,11.34
2022-10-21T18:52:40.501Z,11.31
2022-10-21T18:55:09.923Z,11.25
2022-10-21T18:57:41.392Z,11.19
2022-10-21T19:00:11.402Z,11.15
2022-10-21T19:02:40.795Z,11.12
2022-10-21T19:05:09.936Z,11.06
2022-10-21T19:07:39.699Z,11.02
2022-10-21T19:10:08.898Z,10.97
2022-10-21T19:12:37.671Z,10.90
2022-10-21T19:15:08.352Z,10.85
2022-10-21T19:17:39.090Z,10.82
2022-10-21T19:20:09.872Z,10.77
2022-10-21T19:22:41.392Z,10.72
2022-10-21T19:25:13.764Z,10.67
2022-10-21T19:27:42.484Z,10.60
2022-10-21T19:30:12.150Z,10.56
2022-10-21T19:32:41.018Z,10.53
2022-10-21T19:35:11.422Z,10.51
2022-10-21T19:37:40.006Z,10.46
2022-10-21T19:40:09.920Z,10.40
2022-10-21T19:42:40.460Z,10.36
2022-10-21T19:45:13.727Z,10.33
2022-10-21T19:47:42.499Z,10.30
2022-10-21T19:52:45.351Z,10.25
2022-10-21T19:55:13.973Z,10.19
2022-10-21T19:57:42.974Z,10.16
2022-10-21T20:00:13.347Z,10.10
2022-10-21T20:02:43.562Z,10.08
2022-10-21T20:05:12.166Z,10.07
2022-10-21T20:07:41.333Z,10.04
2022-10-21T20:10:10.774Z,10.00
2022-10-21T20:12:39.657Z,9.99
2022-10-21T20:15:11.386Z,9.96
2022-10-21T20:17:40.377Z,9.92
2022-10-21T20:20:09.692Z,9.91
2022-10-21T20:22:38.784Z,9.89
2022-10-21T20:25:09.196Z,9.89
2022-10-21T20:27:38.254Z,9.88
2022-10-21T20:30:09.001Z,9.88
2022-10-21T20:32:36.705Z,9.89
2022-10-21T20:35:07.905Z,9.87
2022-10-21T20:37:39.704Z,9.87
2022-10-21T20:40:09.732Z,9.88
2022-10-21T20:42:38.303Z,9.87
2022-10-21T20:45:08.638Z,9.88
2022-10-21T20:47:37.212Z,9.90
2022-10-21T20:50:07.065Z,9.91
2022-10-21T20:52:35.696Z,9.93
2022-10-21T20:55:05.006Z,9.94
2022-10-21T20:57:36.531Z,9.93
2022-10-21T21:00:06.670Z,9.92
2022-10-21T21:02:35.790Z,9.93
2022-10-21T21:05:05.716Z,9.95
2022-10-21T21:07:34.296Z,9.97
2022-10-21T21:10:03.924Z,9.98
2022-10-21T21:12:32.603Z,9.99
2022-10-21T21:15:03.141Z,10.01
2022-10-21T21:17:30.841Z,10.04
2022-10-21T21:19:59.344Z,10.06
2022-10-21T21:22:28.089Z,10.07
2022-10-21T21:24:56.608Z,10.08
2022-10-21T21:27:25.201Z,10.07
2022-10-21T21:29:54.122Z,10.06
2022-10-21T21:32:23.010Z,10.06
2022-10-21T21:34:56.329Z,10.06
2022-10-21T21:37:27.620Z,10.06
2022-10-21T21:39:56.580Z,10.06
2022-10-21T21:42:25.148Z,10.05
2022-10-21T21:44:53.754Z,10.05
2022-10-21T21:47:22.340Z,10.03
2022-10-21T21:49:51.074Z,10.02
2022-10-21T21:52:21.005Z,10.01
2022-10-21T21:54:53.759Z,9.99
2022-10-21T21:57:27.791Z,10.00
2022-10-21T21:59:56.641Z,10.00
2022-10-21T22:02:25.193Z,10.01
2022-10-21T22:04:53.671Z,10.02
2022-10-21T22:07:22.111Z,10.03
2022-10-21T22:09:53.111Z,10.04
2022-10-21T22:12:23.218Z,10.05
2022-10-21T22:14:51.965Z,10.07
2022-10-21T22:17:20.676Z,10.08
2022-10-21T22:19:52.982Z,10.09
2022-10-21T22:22:22.815Z,10.08
2022-10-21T22:24:53.929Z,10.08
2022-10-21T22:27:22.541Z,10.08
2022-10-21T22:29:51.265Z,10.07
2022-10-21T22:32:20.010Z,10.06
2022-10-21T22:34:50.268Z,10.07
2022-10-21T22:37:18.945Z,10.08
2022-10-21T22:39:47.601Z,10.07
2022-10-21T22:42:16.237Z,10.08
2022-10-21T22:44:44.924Z,10.07
2022-10-21T22:47:13.764Z,10.07
2022-10-21T22:49:43.050Z,10.08
2022-10-21T22:52:11.628Z,10.08
2022-10-21T22:54:50.244Z,10.07
2022-10-21T22:57:19.185Z,10.09
2022-10-21T22:59:52.925Z,10.11
2022-10-21T23:02:22.970Z,10.12
2022-10-21T23:04:51.589Z,10.13
2022-10-21T23:07:20.156Z,10.14
2022-10-21T23:09:50.739Z,10.15
2022-10-21T23:12:19.381Z,10.18
2022-10-21T23:14:48.020Z,10.17
2022-10-21T23:17:16.593Z,10.19
2022-10-21T23:19:45.481Z,10.20
2022-10-21T23:22:14.312Z,10.22
2022-10-21T23:24:42.939Z,10.23
2022-10-21T23:27:11.740Z,10.22
2022-10-21T23:29:40.448Z,10.22
2022-10-21T23:32:09.044Z,10.21
2022-10-21T23:34:37.559Z,10.21
2022-10-21T23:37:06.291Z,10.17
2022-10-21T23:39:35.385Z,10.14
2022-10-21T23:42:05.137Z,10.12
2022-10-21T23:44:33.906Z,10.11
2022-10-21T23:47:02.716Z,10.09
2022-10-21T23:49:31.375Z,10.09
2022-10-21T23:52:00.980Z,10.07
2022-10-21T23:54:30.627Z,10.06
2022-10-21T23:56:59.250Z,10.05
2022-10-21T23:59:27.772Z,10.03
